sensor_id;sensor_type;location;lat;lon;timestamp;temperature;humidity
16174;DHT22;14031;50.158;8.626;2023-02-21T00:00:05;9.80;99.90
16174;DHT22;14031;50.158;8.626;2023-02-21T00:02:49;9.80;99.90
16174;DHT22;14031;50.158;8.626;2023-02-21T00:05:33;9.70;99.90
16174;DHT22;14031;50.158;8.626;2023-02-21T00:08:19;9.70;99.90
16174;DHT22;14031;50.158;8.626;2023-02-21T00:11:03;9.70;99.90
16174;DHT22;14031;50.158;8.626;2023-02-21T00:13:47;9.60;99.90
16174;DHT22;14031;50.158;8.626;2023-02-21T00:16:31;9.50;99.90
16174;DHT22;14031;50.158;8.626;2023-02-21T00:19:16;9.60;99.90
16174;DHT22;14031;50.158;8.626;2023-02-21T00:22:00;9.40;99.90
16174;DHT22;14031;50.158;8.626;2023-02-21T00:24:45;9.30;99.90
16174;DHT22;14031;50.158;8.626;2023-02-21T00:27:30;9.30;99.90
16174;DHT22;14031;50.158;8.626;2023-02-21T00:30:14;9.30;99.90
16174;DHT22;14031;50.158;8.626;2023-02-21T00:32:59;9.30;99.90
16174;DHT22;14031;50.158;8.626;2023-02-21T00:35:43;9.20;99.90
16174;DHT22;14031;50.158;8.626;2023-02-21T00:38:27;9.20;99.90
16174;DHT22;14031;50.158;8.626;2023-02-21T00:41:12;9.10;99.90
16174;DHT22;14031;50.158;8.626;2023-02-21T00:43:56;9.30;99.90
16174;DHT22;14031;50.158;8.626;2023-02-21T00:46:40;9.20;99.90
16174;DHT22;14031;50.158;8.626;2023-02-21T00:49:25;9.10;99.90
16174;DHT22;14031;50.158;8.626;2023-02-21T00:52:09;9.20;99.90
16174;DHT22;14031;50.158;8.626;2023-02-21T00:54:53;9.20;99.90
16174;DHT22;14031;50.158;8.626;2023-02-21T00:57:39;9.10;99.90
16174;DHT22;14031;50.158;8.626;2023-02-21T01:00:24;9.20;99.90
16174;DHT22;14031;50.158;8.626;2023-02-21T01:03:09;9.20;99.90
16174;DHT22;14031;50.158;8.626;2023-02-21T01:05:53;9.10;99.90
16174;DHT22;14031;50.158;8.626;2023-02-21T01:08:40;9.20;99.90
16174;DHT22;14031;50.158;8.626;2023-02-21T01:11:25;9.20;99.90
16174;DHT22;14031;50.158;8.626;2023-02-21T01:14:11;9.10;99.90
16174;DHT22;14031;50.158;8.626;2023-02-21T01:16:56;9.10;99.90
16174;DHT22;14031;50.158;8.626;2023-02-21T01:19:40;9.10;99.90
16174;DHT22;14031;50.158;8.626;2023-02-21T01:22:24;9.10;99.90
16174;DHT22;14031;50.158;8.626;2023-02-21T01:25:08;9.10;99.90
16174;DHT22;14031;50.158;8.626;2023-02-21T01:27:53;9.10;99.90
16174;DHT22;14031;50.158;8.626;2023-02-21T01:30:39;9.10;99.90
16174;DHT22;14031;50.158;8.626;2023-02-21T01:33:23;9.10;99.90
16174;DHT22;14031;50.158;8.626;2023-02-21T01:36:08;9.10;99.90
16174;DHT22;14031;50.158;8.626;2023-02-21T01:38:53;9.10;99.90
16174;DHT22;14031;50.158;8.626;2023-02-21T01:41:37;9.00;99.90
16174;DHT22;14031;50.158;8.626;2023-02-21T01:44:32;9.10;99.90
16174;DHT22;14031;50.158;8.626;2023-02-21T01:47:18;9.10;99.90
16174;DHT22;14031;50.158;8.626;2023-02-21T01:50:10;9.00;99.90
16174;DHT22;14031;50.158;8.626;2023-02-21T01:52:56;9.00;99.90
16174;DHT22;14031;50.158;8.626;2023-02-21T01:55:41;9.00;99.90
16174;DHT22;14031;50.158;8.626;2023-02-21T01:58:28;8.90;99.90
16174;DHT22;14031;50.158;8.626;2023-02-21T02:01:22;8.90;99.90
16174;DHT22;14031;50.158;8.626;2023-02-21T02:04:10;8.90;99.90
16174;DHT22;14031;50.158;8.626;2023-02-21T02:06:54;8.80;99.90
16174;DHT22;14031;50.158;8.626;2023-02-21T02:09:39;8.80;99.90
16174;DHT22;14031;50.158;8.626;2023-02-21T02:12:40;8.80;99.90
16174;DHT22;14031;50.158;8.626;2023-02-21T02:15:20;8.80;99.90
16174;DHT22;14031;50.158;8.626;2023-02-21T02:18:19;8.80;99.90
16174;DHT22;14031;50.158;8.626;2023-02-21T02:27:14;8.70;99.90
16174;DHT22;14031;50.158;8.626;2023-02-21T02:33:05;8.70;99.90
16174;DHT22;14031;50.158;8.626;2023-02-21T02:35:37;8.70;99.90
16174;DHT22;14031;50.158;8.626;2023-02-21T02:38:10;8.60;99.90
16174;DHT22;14031;50.158;8.626;2023-02-21T02:40:44;8.70;99.90
16174;DHT22;14031;50.158;8.626;2023-02-21T02:43:18;8.70;99.90
16174;DHT22;14031;50.158;8.626;2023-02-21T02:45:50;8.70;99.90
16174;DHT22;14031;50.158;8.626;2023-02-21T02:48:21;8.70;99.90
16174;DHT22;14031;50.158;8.626;2023-02-21T02:50:51;8.80;99.90
16174;DHT22;14031;50.158;8.626;2023-02-21T02:53:21;8.60;99.90
16174;DHT22;14031;50.158;8.626;2023-02-21T02:55:53;8.60;99.90
16174;DHT22;14031;50.158;8.626;2023-02-21T02:58:23;8.60;99.90
16174;DHT22;14031;50.158;8.626;2023-02-21T03:00:59;8.60;99.90
16174;DHT22;14031;50.158;8.626;2023-02-21T03:03:43;8.50;99.90
16174;DHT22;14031;50.158;8.626;2023-02-21T03:06:22;8.50;99.90
16174;DHT22;14031;50.158;8.626;2023-02-21T03:09:01;8.50;99.90
16174;DHT22;14031;50.158;8.626;2023-02-21T03:11:32;8.40;99.90
16174;DHT22;14031;50.158;8.626;2023-02-21T03:14:06;8.40;99.90
16174;DHT22;14031;50.158;8.626;2023-02-21T03:16:38;8.40;99.90
16174;DHT22;14031;50.158;8.626;2023-02-21T03:19:09;8.40;99.90
16174;DHT22;14031;50.158;8.626;2023-02-21T03:21:41;8.50;99.90
16174;DHT22;14031;50.158;8.626;2023-02-21T03:24:10;8.40;99.90
16174;DHT22;14031;50.158;8.626;2023-02-21T03:26:40;8.50;99.90
16174;DHT22;14031;50.158;8.626;2023-02-21T03:29:08;8.50;99.90
16174;DHT22;14031;50.158;8.626;2023-02-21T03:31:42;8.60;99.90
16174;DHT22;14031;50.158;8.626;2023-02-21T03:34:10;8.50;99.90
16174;DHT22;14031;50.158;8.626;2023-02-21T03:36:38;8.50;99.90
16174;DHT22;14031;50.158;8.626;2023-02-21T03:39:05;8.60;99.90
16174;DHT22;14031;50.158;8.626;2023-02-21T03:41:32;8.80;99.90
16174;DHT22;14031;50.158;8.626;2023-02-21T03:43:58;8.70;99.90
16174;DHT22;14031;50.158;8.626;2023-02-21T03:46:25;8.80;99.90
16174;DHT22;14031;50.158;8.626;2023-02-21T03:48:52;8.70;99.90
16174;DHT22;14031;50.158;8.626;2023-02-21T03:51:19;8.70;99.90
16174;DHT22;14031;50.158;8.626;2023-02-21T03:53:51;8.70;99.90
16174;DHT22;14031;50.158;8.626;2023-02-21T03:56:18;8.70;99.90
16174;DHT22;14031;50.158;8.626;2023-02-21T03:58:44;8.70;99.90
16174;DHT22;14031;50.158;8.626;2023-02-21T04:01:11;8.70;99.90
16174;DHT22;14031;50.158;8.626;2023-02-21T04:03:38;8.80;99.90
16174;DHT22;14031;50.158;8.626;2023-02-21T04:06:05;8.80;99.90
16174;DHT22;14031;50.158;8.626;2023-02-21T04:08:32;8.80;99.90
16174;DHT22;14031;50.158;8.626;2023-02-21T04:11:00;8.70;99.90
16174;DHT22;14031;50.158;8.626;2023-02-21T04:13:26;8.80;99.90
16174;DHT22;14031;50.158;8.626;2023-02-21T04:15:53;8.70;99.90
16174;DHT22;14031;50.158;8.626;2023-02-21T04:18:20;8.70;99.90
16174;DHT22;14031;50.158;8.626;2023-02-21T04:20:47;8.70;99.90
16174;DHT22;14031;50.158;8.626;2023-02-21T04:23:16;8.70;99.90
16174;DHT22;14031;50.158;8.626;2023-02-21T04:25:42;8.60;99.90
16174;DHT22;14031;50.158;8.626;2023-02-21T04:28:11;8.60;99.90
16174;DHT22;14031;50.158;8.626;2023-02-21T04:30:37;8.60;99.90
16174;DHT22;14031;50.158;8.626;2023-02-21T04:33:04;8.60;99.90
16174;DHT22;14031;50.158;8.626;2023-02-21T04:35:31;8.40;99.90
16174;DHT22;14031;50.158;8.626;2023-02-21T04:37:57;8.40;99.90
16174;DHT22;14031;50.158;8.626;2023-02-21T04:40:24;8.40;99.90
16174;DHT22;14031;50.158;8.626;2023-02-21T04:42:51;8.40;99.90
16174;DHT22;14031;50.158;8.626;2023-02-21T04:45:19;8.40;99.90
16174;DHT22;14031;50.158;8.626;2023-02-21T04:47:46;8.40;99.90
16174;DHT22;14031;50.158;8.626;2023-02-21T04:50:13;8.30;99.90
16174;DHT22;14031;50.158;8.626;2023-02-21T04:52:42;8.30;99.90
16174;DHT22;14031;50.158;8.626;2023-02-21T04:55:09;8.30;99.90
16174;DHT22;14031;50.158;8.626;2023-02-21T04:57:40;8.30;99.90
16174;DHT22;14031;50.158;8.626;2023-02-21T05:00:09;8.30;99.90
16174;DHT22;14031;50.158;8.626;2023-02-21T05:02:38;8.30;99.90
16174;DHT22;14031;50.158;8.626;2023-02-21T05:05:08;8.30;99.90
16174;DHT22;14031;50.158;8.626;2023-02-21T05:07:34;8.30;99.90
16174;DHT22;14031;50.158;8.626;2023-02-21T05:10:01;8.30;99.90
16174;DHT22;14031;50.158;8.626;2023-02-21T05:12:29;8.30;99.90
16174;DHT22;14031;50.158;8.626;2023-02-21T05:14:56;8.30;99.90
16174;DHT22;14031;50.158;8.626;2023-02-21T05:17:23;8.30;99.90
16174;DHT22;14031;50.158;8.626;2023-02-21T05:19:53;8.30;99.90
16174;DHT22;14031;50.158;8.626;2023-02-21T05:22:20;8.20;99.90
16174;DHT22;14031;50.158;8.626;2023-02-21T05:24:47;8.20;99.90
16174;DHT22;14031;50.158;8.626;2023-02-21T05:27:14;8.20;99.90
16174;DHT22;14031;50.158;8.626;2023-02-21T05:29:41;8.20;99.90
16174;DHT22;14031;50.158;8.626;2023-02-21T05:32:09;8.20;99.90
16174;DHT22;14031;50.158;8.626;2023-02-21T05:34:36;8.10;99.90
16174;DHT22;14031;50.158;8.626;2023-02-21T05:37:04;8.10;99.90
16174;DHT22;14031;50.158;8.626;2023-02-21T05:39:31;8.00;99.90
16174;DHT22;14031;50.158;8.626;2023-02-21T05:41:57;8.00;99.90
16174;DHT22;14031;50.158;8.626;2023-02-21T05:44:24;7.90;99.90
16174;DHT22;14031;50.158;8.626;2023-02-21T05:46:51;7.90;99.90
16174;DHT22;14031;50.158;8.626;2023-02-21T05:49:17;7.90;99.90
16174;DHT22;14031;50.158;8.626;2023-02-21T05:51:45;7.80;99.90
16174;DHT22;14031;50.158;8.626;2023-02-21T05:54:16;7.90;99.90
16174;DHT22;14031;50.158;8.626;2023-02-21T05:56:44;7.90;99.90
16174;DHT22;14031;50.158;8.626;2023-02-21T05:59:12;7.80;99.90
16174;DHT22;14031;50.158;8.626;2023-02-21T06:01:39;7.90;99.90
16174;DHT22;14031;50.158;8.626;2023-02-21T06:04:06;7.90;99.90
16174;DHT22;14031;50.158;8.626;2023-02-21T06:06:33;7.80;99.90
16174;DHT22;14031;50.158;8.626;2023-02-21T06:09:00;7.80;99.90
16174;DHT22;14031;50.158;8.626;2023-02-21T06:11:30;7.80;99.90
16174;DHT22;14031;50.158;8.626;2023-02-21T06:13:59;7.70;99.90
16174;DHT22;14031;50.158;8.626;2023-02-21T06:16:31;7.80;99.90
16174;DHT22;14031;50.158;8.626;2023-02-21T06:18:58;7.90;99.90
16174;DHT22;14031;50.158;8.626;2023-02-21T06:21:25;8.00;99.90
16174;DHT22;14031;50.158;8.626;2023-02-21T06:23:52;8.00;99.90
16174;DHT22;14031;50.158;8.626;2023-02-21T06:26:19;8.00;99.90
16174;DHT22;14031;50.158;8.626;2023-02-21T06:28:48;8.10;99.90
16174;DHT22;14031;50.158;8.626;2023-02-21T06:31:16;8.30;99.90
16174;DHT22;14031;50.158;8.626;2023-02-21T06:33:43;8.20;99.90
16174;DHT22;14031;50.158;8.626;2023-02-21T06:36:11;8.20;99.90
16174;DHT22;14031;50.158;8.626;2023-02-21T06:38:38;8.20;99.90
16174;DHT22;14031;50.158;8.626;2023-02-21T06:41:05;8.20;99.90
16174;DHT22;14031;50.158;8.626;2023-02-21T06:43:32;8.10;99.90
16174;DHT22;14031;50.158;8.626;2023-02-21T06:46:02;8.10;99.90
16174;DHT22;14031;50.158;8.626;2023-02-21T06:48:29;8.10;99.90
16174;DHT22;14031;50.158;8.626;2023-02-21T06:50:56;8.10;99.90
16174;DHT22;14031;50.158;8.626;2023-02-21T06:53:23;8.10;99.90
16174;DHT22;14031;50.158;8.626;2023-02-21T06:55:50;8.10;99.90
16174;DHT22;14031;50.158;8.626;2023-02-21T06:58:17;8.00;99.90
16174;DHT22;14031;50.158;8.626;2023-02-21T07:00:44;8.10;99.90
16174;DHT22;14031;50.158;8.626;2023-02-21T07:03:12;8.10;99.90
16174;DHT22;14031;50.158;8.626;2023-02-21T07:05:39;8.10;99.90
16174;DHT22;14031;50.158;8.626;2023-02-21T07:08:06;8.30;99.90
16174;DHT22;14031;50.158;8.626;2023-02-21T07:10:32;8.20;99.90
16174;DHT22;14031;50.158;8.626;2023-02-21T07:12:59;8.20;99.90
16174;DHT22;14031;50.158;8.626;2023-02-21T07:15:26;8.20;99.90
16174;DHT22;14031;50.158;8.626;2023-02-21T07:17:53;8.40;99.90
16174;DHT22;14031;50.158;8.626;2023-02-21T07:20:21;8.60;99.90
16174;DHT22;14031;50.158;8.626;2023-02-21T07:22:48;8.40;99.90
16174;DHT22;14031;50.158;8.626;2023-02-21T07:25:17;8.60;99.90
16174;DHT22;14031;50.158;8.626;2023-02-21T07:27:45;8.40;99.90
16174;DHT22;14031;50.158;8.626;2023-02-21T07:30:13;8.40;99.90
16174;DHT22;14031;50.158;8.626;2023-02-21T07:32:40;8.40;99.90
16174;DHT22;14031;50.158;8.626;2023-02-21T07:35:07;8.50;99.90
16174;DHT22;14031;50.158;8.626;2023-02-21T07:37:35;8.50;99.90
16174;DHT22;14031;50.158;8.626;2023-02-21T07:40:03;8.60;99.90
16174;DHT22;14031;50.158;8.626;2023-02-21T07:42:31;8.60;99.90
16174;DHT22;14031;50.158;8.626;2023-02-21T07:44:58;8.70;99.90
16174;DHT22;14031;50.158;8.626;2023-02-21T07:47:25;8.70;99.90
16174;DHT22;14031;50.158;8.626;2023-02-21T07:49:53;8.70;99.90
16174;DHT22;14031;50.158;8.626;2023-02-21T07:52:20;8.80;99.90
16174;DHT22;14031;50.158;8.626;2023-02-21T07:54:49;8.80;99.90
16174;DHT22;14031;50.158;8.626;2023-02-21T07:57:16;8.80;99.90
16174;DHT22;14031;50.158;8.626;2023-02-21T07:59:43;8.90;99.90
16174;DHT22;14031;50.158;8.626;2023-02-21T08:02:10;9.00;99.90
16174;DHT22;14031;50.158;8.626;2023-02-21T08:04:37;8.80;99.90
16174;DHT22;14031;50.158;8.626;2023-02-21T08:07:05;8.90;99.90
16174;DHT22;14031;50.158;8.626;2023-02-21T08:09:32;8.90;99.90
16174;DHT22;14031;50.158;8.626;2023-02-21T08:12:01;8.90;99.90
16174;DHT22;14031;50.158;8.626;2023-02-21T08:14:28;9.00;99.90
16174;DHT22;14031;50.158;8.626;2023-02-21T08:16:55;8.90;99.90
16174;DHT22;14031;50.158;8.626;2023-02-21T08:19:21;9.00;99.90
16174;DHT22;14031;50.158;8.626;2023-02-21T08:21:48;9.00;99.90
16174;DHT22;14031;50.158;8.626;2023-02-21T08:24:16;9.20;99.90
16174;DHT22;14031;50.158;8.626;2023-02-21T08:26:43;9.00;99.90
16174;DHT22;14031;50.158;8.626;2023-02-21T08:29:12;9.10;99.90
16174;DHT22;14031;50.158;8.626;2023-02-21T08:31:41;9.10;99.90
16174;DHT22;14031;50.158;8.626;2023-02-21T08:34:09;9.30;99.90
16174;DHT22;14031;50.158;8.626;2023-02-21T08:36:37;9.20;99.90
16174;DHT22;14031;50.158;8.626;2023-02-21T08:39:06;9.30;99.90
16174;DHT22;14031;50.158;8.626;2023-02-21T08:41:37;9.20;99.90
16174;DHT22;14031;50.158;8.626;2023-02-21T08:44:04;9.30;99.90
16174;DHT22;14031;50.158;8.626;2023-02-21T08:46:33;9.40;99.90
16174;DHT22;14031;50.158;8.626;2023-02-21T08:49:00;9.40;99.90
16174;DHT22;14031;50.158;8.626;2023-02-21T08:51:28;9.40;99.90
16174;DHT22;14031;50.158;8.626;2023-02-21T08:53:55;9.50;99.90
16174;DHT22;14031;50.158;8.626;2023-02-21T08:56:24;9.60;99.90
16174;DHT22;14031;50.158;8.626;2023-02-21T08:58:51;9.60;99.90
16174;DHT22;14031;50.158;8.626;2023-02-21T09:01:19;9.60;99.90
16174;DHT22;14031;50.158;8.626;2023-02-21T09:03:47;9.70;99.90
16174;DHT22;14031;50.158;8.626;2023-02-21T09:06:14;9.70;99.90
16174;DHT22;14031;50.158;8.626;2023-02-21T09:08:41;9.90;99.90
16174;DHT22;14031;50.158;8.626;2023-02-21T09:11:08;9.90;99.90
16174;DHT22;14031;50.158;8.626;2023-02-21T09:13:34;9.90;99.90
16174;DHT22;14031;50.158;8.626;2023-02-21T09:16:02;9.90;99.90
16174;DHT22;14031;50.158;8.626;2023-02-21T09:18:30;10.00;99.90
16174;DHT22;14031;50.158;8.626;2023-02-21T09:20:58;10.10;99.90
16174;DHT22;14031;50.158;8.626;2023-02-21T09:23:27;10.10;99.90
16174;DHT22;14031;50.158;8.626;2023-02-21T09:25:55;10.10;99.90
16174;DHT22;14031;50.158;8.626;2023-02-21T09:28:22;10.10;99.90
16174;DHT22;14031;50.158;8.626;2023-02-21T09:30:49;10.20;99.90
16174;DHT22;14031;50.158;8.626;2023-02-21T09:33:16;10.30;99.90
16174;DHT22;14031;50.158;8.626;2023-02-21T09:35:43;10.30;99.90
16174;DHT22;14031;50.158;8.626;2023-02-21T09:38:11;10.40;99.90
16174;DHT22;14031;50.158;8.626;2023-02-21T09:40:41;10.50;99.90
16174;DHT22;14031;50.158;8.626;2023-02-21T09:43:12;10.50;99.90
16174;DHT22;14031;50.158;8.626;2023-02-21T09:45:41;10.50;99.90
16174;DHT22;14031;50.158;8.626;2023-02-21T09:48:12;10.60;99.90
16174;DHT22;14031;50.158;8.626;2023-02-21T09:50:43;10.70;99.90
16174;DHT22;14031;50.158;8.626;2023-02-21T09:53:15;10.80;99.90
16174;DHT22;14031;50.158;8.626;2023-02-21T09:55:43;10.80;99.90
16174;DHT22;14031;50.158;8.626;2023-02-21T09:58:11;10.90;99.90
16174;DHT22;14031;50.158;8.626;2023-02-21T10:00:39;11.00;99.90
16174;DHT22;14031;50.158;8.626;2023-02-21T10:03:17;11.10;99.90
16174;DHT22;14031;50.158;8.626;2023-02-21T10:05:46;11.10;99.90
16174;DHT22;14031;50.158;8.626;2023-02-21T10:08:21;11.30;99.90
16174;DHT22;14031;50.158;8.626;2023-02-21T10:10:53;11.30;99.90
16174;DHT22;14031;50.158;8.626;2023-02-21T10:13:30;11.40;99.90
16174;DHT22;14031;50.158;8.626;2023-02-21T10:16:04;11.40;99.90
16174;DHT22;14031;50.158;8.626;2023-02-21T10:18:37;11.50;99.90
16174;DHT22;14031;50.158;8.626;2023-02-21T10:21:11;11.60;99.90
16174;DHT22;14031;50.158;8.626;2023-02-21T10:23:44;11.50;99.90
16174;DHT22;14031;50.158;8.626;2023-02-21T10:26:14;11.70;99.90
16174;DHT22;14031;50.158;8.626;2023-02-21T10:28:42;11.80;99.90
16174;DHT22;14031;50.158;8.626;2023-02-21T10:31:13;11.90;99.90
16174;DHT22;14031;50.158;8.626;2023-02-21T10:33:41;12.00;99.90
16174;DHT22;14031;50.158;8.626;2023-02-21T10:36:11;12.10;99.90
16174;DHT22;14031;50.158;8.626;2023-02-21T10:38:41;12.10;99.90
16174;DHT22;14031;50.158;8.626;2023-02-21T10:41:11;12.20;99.90
16174;DHT22;14031;50.158;8.626;2023-02-21T10:43:41;12.30;99.90
16174;DHT22;14031;50.158;8.626;2023-02-21T10:46:14;12.20;99.90
16174;DHT22;14031;50.158;8.626;2023-02-21T10:48:46;12.30;99.90
16174;DHT22;14031;50.158;8.626;2023-02-21T10:51:16;12.40;99.90
16174;DHT22;14031;50.158;8.626;2023-02-21T10:53:46;12.40;99.90
16174;DHT22;14031;50.158;8.626;2023-02-21T10:56:26;12.50;99.90
16174;DHT22;14031;50.158;8.626;2023-02-21T10:58:55;12.60;99.90
16174;DHT22;14031;50.158;8.626;2023-02-21T11:01:32;12.70;99.90
16174;DHT22;14031;50.158;8.626;2023-02-21T11:04:03;12.80;99.90
16174;DHT22;14031;50.158;8.626;2023-02-21T11:06:36;12.90;99.90
16174;DHT22;14031;50.158;8.626;2023-02-21T11:09:31;13.10;99.90
16174;DHT22;14031;50.158;8.626;2023-02-21T11:12:15;13.10;99.90
16174;DHT22;14031;50.158;8.626;2023-02-21T11:14:45;13.20;99.90
16174;DHT22;14031;50.158;8.626;2023-02-21T11:17:28;13.20;99.90
16174;DHT22;14031;50.158;8.626;2023-02-21T11:20:01;13.30;99.90
16174;DHT22;14031;50.158;8.626;2023-02-21T11:22:37;13.30;99.90
16174;DHT22;14031;50.158;8.626;2023-02-21T11:25:19;13.50;99.90
16174;DHT22;14031;50.158;8.626;2023-02-21T11:27:58;13.50;99.90
16174;DHT22;14031;50.158;8.626;2023-02-21T11:30:26;13.60;99.90
16174;DHT22;14031;50.158;8.626;2023-02-21T11:32:56;13.80;99.90
16174;DHT22;14031;50.158;8.626;2023-02-21T11:35:25;14.00;99.90
16174;DHT22;14031;50.158;8.626;2023-02-21T11:37:55;14.00;99.90
16174;DHT22;14031;50.158;8.626;2023-02-21T11:40:28;14.00;99.90
16174;DHT22;14031;50.158;8.626;2023-02-21T11:43:10;14.00;99.90
16174;DHT22;14031;50.158;8.626;2023-02-21T11:45:38;14.20;99.90
16174;DHT22;14031;50.158;8.626;2023-02-21T11:48:11;14.30;99.90
16174;DHT22;14031;50.158;8.626;2023-02-21T11:50:43;14.30;99.90
16174;DHT22;14031;50.158;8.626;2023-02-21T11:53:17;14.40;99.90
16174;DHT22;14031;50.158;8.626;2023-02-21T11:55:55;14.40;99.90
16174;DHT22;14031;50.158;8.626;2023-02-21T11:58:26;14.50;99.90
16174;DHT22;14031;50.158;8.626;2023-02-21T12:01:00;14.40;99.90
16174;DHT22;14031;50.158;8.626;2023-02-21T12:03:58;14.40;99.90
16174;DHT22;14031;50.158;8.626;2023-02-21T12:06:33;14.40;99.90
16174;DHT22;14031;50.158;8.626;2023-02-21T12:09:03;14.40;99.90
16174;DHT22;14031;50.158;8.626;2023-02-21T12:11:49;14.40;99.90
16174;DHT22;14031;50.158;8.626;2023-02-21T12:14:45;14.40;99.90
16174;DHT22;14031;50.158;8.626;2023-02-21T12:17:25;14.40;99.90
16174;DHT22;14031;50.158;8.626;2023-02-21T12:20:04;14.40;99.90
16174;DHT22;14031;50.158;8.626;2023-02-21T12:22:49;14.40;99.90
16174;DHT22;14031;50.158;8.626;2023-02-21T12:25:27;14.40;99.90
16174;DHT22;14031;50.158;8.626;2023-02-21T12:28:02;14.50;99.90
16174;DHT22;14031;50.158;8.626;2023-02-21T12:30:51;14.60;99.90
16174;DHT22;14031;50.158;8.626;2023-02-21T12:33:31;14.60;99.90
16174;DHT22;14031;50.158;8.626;2023-02-21T12:36:25;14.70;99.90
16174;DHT22;14031;50.158;8.626;2023-02-21T12:39:06;14.80;99.90
16174;DHT22;14031;50.158;8.626;2023-02-21T12:41:46;14.90;99.90
16174;DHT22;14031;50.158;8.626;2023-02-21T12:44:19;14.90;99.90
16174;DHT22;14031;50.158;8.626;2023-02-21T12:46:51;15.00;99.90
16174;DHT22;14031;50.158;8.626;2023-02-21T12:51:57;15.00;99.90
16174;DHT22;14031;50.158;8.626;2023-02-21T12:54:35;15.20;99.90
16174;DHT22;14031;50.158;8.626;2023-02-21T12:57:07;15.10;99.90
16174;DHT22;14031;50.158;8.626;2023-02-21T12:59:45;15.30;99.90
16174;DHT22;14031;50.158;8.626;2023-02-21T13:02:20;15.30;99.90
16174;DHT22;14031;50.158;8.626;2023-02-21T13:04:53;15.40;99.90
16174;DHT22;14031;50.158;8.626;2023-02-21T13:07:23;15.60;99.90
16174;DHT22;14031;50.158;8.626;2023-02-21T13:09:58;15.50;99.90
16174;DHT22;14031;50.158;8.626;2023-02-21T13:12:31;15.50;99.90
16174;DHT22;14031;50.158;8.626;2023-02-21T13:15:08;15.70;99.90
16174;DHT22;14031;50.158;8.626;2023-02-21T13:17:41;15.70;99.90
16174;DHT22;14031;50.158;8.626;2023-02-21T13:20:13;15.80;99.90
16174;DHT22;14031;50.158;8.626;2023-02-21T13:26:17;16.00;99.90
16174;DHT22;14031;50.158;8.626;2023-02-21T13:28:51;16.10;99.90
16174;DHT22;14031;50.158;8.626;2023-02-21T13:31:21;16.20;99.90
16174;DHT22;14031;50.158;8.626;2023-02-21T13:33:50;16.30;99.90
16174;DHT22;14031;50.158;8.626;2023-02-21T13:36:22;16.40;99.90
16174;DHT22;14031;50.158;8.626;2023-02-21T13:39:00;16.60;99.90
16174;DHT22;14031;50.158;8.626;2023-02-21T13:41:29;16.70;99.90
16174;DHT22;14031;50.158;8.626;2023-02-21T13:43:59;16.80;99.90
16174;DHT22;14031;50.158;8.626;2023-02-21T13:49:52;17.10;99.90
16174;DHT22;14031;50.158;8.626;2023-02-21T13:55:24;17.40;99.90
16174;DHT22;14031;50.158;8.626;2023-02-21T13:58:32;17.50;99.90
16174;DHT22;14031;50.158;8.626;2023-02-21T14:01:40;17.60;99.90
16174;DHT22;14031;50.158;8.626;2023-02-21T14:07:47;17.80;99.90
16174;DHT22;14031;50.158;8.626;2023-02-21T14:10:29;17.80;99.90
16174;DHT22;14031;50.158;8.626;2023-02-21T14:13:00;17.90;99.90
16174;DHT22;14031;50.158;8.626;2023-02-21T14:15:39;18.00;99.90
16174;DHT22;14031;50.158;8.626;2023-02-21T14:18:14;18.10;99.90
16174;DHT22;14031;50.158;8.626;2023-02-21T14:20:45;18.20;99.90
16174;DHT22;14031;50.158;8.626;2023-02-21T14:23:15;18.30;99.90
16174;DHT22;14031;50.158;8.626;2023-02-21T14:25:53;18.40;99.90
16174;DHT22;14031;50.158;8.626;2023-02-21T14:29:08;18.60;99.90
16174;DHT22;14031;50.158;8.626;2023-02-21T14:31:51;18.80;99.90
16174;DHT22;14031;50.158;8.626;2023-02-21T14:34:23;18.90;99.90
16174;DHT22;14031;50.158;8.626;2023-02-21T14:36:55;18.90;99.90
16174;DHT22;14031;50.158;8.626;2023-02-21T14:39:29;19.00;99.90
16174;DHT22;14031;50.158;8.626;2023-02-21T14:42:08;19.00;99.90
16174;DHT22;14031;50.158;8.626;2023-02-21T14:44:53;19.10;99.90
16174;DHT22;14031;50.158;8.626;2023-02-21T14:50:31;19.30;99.90
16174;DHT22;14031;50.158;8.626;2023-02-21T14:56:23;19.40;99.90
16174;DHT22;14031;50.158;8.626;2023-02-21T14:59:05;19.40;99.90
16174;DHT22;14031;50.158;8.626;2023-02-21T15:01:52;19.40;99.90
16174;DHT22;14031;50.158;8.626;2023-02-21T15:04:30;19.40;99.90
16174;DHT22;14031;50.158;8.626;2023-02-21T15:07:04;19.50;99.90
16174;DHT22;14031;50.158;8.626;2023-02-21T15:09:34;19.50;99.90
16174;DHT22;14031;50.158;8.626;2023-02-21T15:12:03;19.50;99.90
16174;DHT22;14031;50.158;8.626;2023-02-21T15:14:35;19.40;99.90
16174;DHT22;14031;50.158;8.626;2023-02-21T15:17:11;19.40;99.90
16174;DHT22;14031;50.158;8.626;2023-02-21T15:19:39;19.30;99.90
16174;DHT22;14031;50.158;8.626;2023-02-21T15:22:17;19.00;99.90
16174;DHT22;14031;50.158;8.626;2023-02-21T15:25:15;18.90;99.90
16174;DHT22;14031;50.158;8.626;2023-02-21T15:28:01;18.50;99.90
16174;DHT22;14031;50.158;8.626;2023-02-21T15:30:34;18.10;99.90
16174;DHT22;14031;50.158;8.626;2023-02-21T15:33:06;17.80;99.90
16174;DHT22;14031;50.158;8.626;2023-02-21T15:35:35;17.50;99.90
16174;DHT22;14031;50.158;8.626;2023-02-21T15:38:06;17.30;99.90
16174;DHT22;14031;50.158;8.626;2023-02-21T15:40:35;17.10;99.90
16174;DHT22;14031;50.158;8.626;2023-02-21T15:43:05;16.90;99.90
16174;DHT22;14031;50.158;8.626;2023-02-21T15:45:40;16.80;99.90
16174;DHT22;14031;50.158;8.626;2023-02-21T15:48:09;16.60;99.90
16174;DHT22;14031;50.158;8.626;2023-02-21T15:50:39;16.50;99.90
16174;DHT22;14031;50.158;8.626;2023-02-21T15:53:14;16.50;99.90
16174;DHT22;14031;50.158;8.626;2023-02-21T15:55:42;16.40;99.90
16174;DHT22;14031;50.158;8.626;2023-02-21T15:58:24;16.40;99.90
16174;DHT22;14031;50.158;8.626;2023-02-21T16:01:06;16.30;99.90
16174;DHT22;14031;50.158;8.626;2023-02-21T16:03:36;16.20;99.90
16174;DHT22;14031;50.158;8.626;2023-02-21T16:06:20;16.10;99.90
16174;DHT22;14031;50.158;8.626;2023-02-21T16:09:02;16.00;99.90
16174;DHT22;14031;50.158;8.626;2023-02-21T16:11:42;16.00;99.90
16174;DHT22;14031;50.158;8.626;2023-02-21T16:14:17;15.90;99.90
16174;DHT22;14031;50.158;8.626;2023-02-21T16:16:46;15.80;99.90
16174;DHT22;14031;50.158;8.626;2023-02-21T16:19:19;15.70;99.90
16174;DHT22;14031;50.158;8.626;2023-02-21T16:21:46;15.70;99.90
16174;DHT22;14031;50.158;8.626;2023-02-21T16:24:29;15.60;99.90
16174;DHT22;14031;50.158;8.626;2023-02-21T16:27:02;15.60;99.90
16174;DHT22;14031;50.158;8.626;2023-02-21T16:29:30;15.50;99.90
16174;DHT22;14031;50.158;8.626;2023-02-21T16:31:57;15.50;99.90
16174;DHT22;14031;50.158;8.626;2023-02-21T16:34:24;15.40;99.90
16174;DHT22;14031;50.158;8.626;2023-02-21T16:37:00;15.30;99.90
16174;DHT22;14031;50.158;8.626;2023-02-21T16:39:28;15.20;99.90
16174;DHT22;14031;50.158;8.626;2023-02-21T16:41:55;15.10;99.90
16174;DHT22;14031;50.158;8.626;2023-02-21T16:44:22;15.00;99.90
16174;DHT22;14031;50.158;8.626;2023-02-21T16:46:51;14.90;99.90
16174;DHT22;14031;50.158;8.626;2023-02-21T16:49:18;14.90;99.90